createdAt,value
2018-04-11T10:03:54.302Z,96925.46
2018-04-11T10:04:57.981Z,96969.98
2018-04-11T10:06:01.523Z,97019.06
2018-04-11T10:07:05.045Z,97025.08
2018-04-11T10:08:08.607Z,97025.46
2018-04-11T10:09:13.351Z,97025.46
2018-04-11T10:10:16.904Z,97024.50
2018-04-11T10:11:21.051Z,96989.66
2018-04-11T10:12:24.558Z,97027.02
2018-04-11T10:13:28.087Z,97027.25
2018-04-11T10:14:31.644Z,97022.09
2018-04-11T10:15:35.209Z,97027.73
2018-04-11T10:16:38.768Z,97025.30
2018-04-11T10:17:42.361Z,97025.53
2018-04-11T10:18:47.184Z,97024.87
2018-04-11T10:19:50.735Z,97025.91
2018-04-11T10:20:54.738Z,97026.45
2018-04-11T10:21:58.345Z,97024.88
2018-04-11T10:23:01.858Z,96932.23
2018-04-11T10:24:05.385Z,97022.44
2018-04-11T10:25:08.872Z,97020.44
2018-04-11T10:26:12.357Z,97022.44
2018-04-11T10:27:16.413Z,97022.57
2018-04-11T10:28:19.953Z,97015.84
2018-04-11T10:29:23.540Z,97021.19
2018-04-11T10:30:27.081Z,96934.04
2018-04-11T10:31:30.676Z,97019.57
2018-04-11T10:32:34.258Z,96999.83
2018-04-11T10:33:38.175Z,97021.28
2018-04-11T10:34:41.809Z,97017.66
2018-04-11T10:35:45.350Z,97005.21
2018-04-11T10:36:49.010Z,97016.17
2018-04-11T10:37:52.533Z,97015.16
2018-04-11T10:38:56.075Z,97018.50
2018-04-11T10:40:00.106Z,96990.95
2018-04-11T10:41:03.656Z,97022.42
2018-04-11T10:42:07.207Z,97020.07
2018-04-11T10:43:10.839Z,97019.27
2018-04-11T10:44:14.435Z,97019.08
2018-04-11T10:45:18.155Z,96927.13
2018-04-11T10:46:22.102Z,97022.32
2018-04-11T10:47:25.709Z,97025.58
2018-04-11T10:48:29.258Z,97025.58
2018-04-11T10:49:32.735Z,97026.52
2018-04-11T10:50:36.302Z,97030.26
2018-04-11T10:51:39.834Z,97012.56
2018-04-11T10:52:43.712Z,97024.91
2018-04-11T10:53:47.336Z,97027.67
2018-04-11T10:54:50.901Z,97030.77
2018-04-11T10:55:54.433Z,96948.66
2018-04-11T10:56:58.287Z,96968.36
2018-04-11T10:58:01.840Z,97014.64
2018-04-11T10:59:05.745Z,97031.06
2018-04-11T11:00:09.288Z,97012.75
2018-04-11T11:01:12.986Z,97031.02
2018-04-11T11:02:16.712Z,97029.88
2018-04-11T11:03:20.276Z,97030.54
2018-04-11T11:04:23.817Z,97033.02
2018-04-11T11:05:27.799Z,97027.92
2018-04-11T11:06:31.428Z,97017.80
2018-04-11T11:07:34.984Z,97010.40
2018-04-11T11:08:38.477Z,97029.28
2018-04-11T11:09:42.029Z,96996.77
2018-04-11T11:10:45.658Z,97030.45
2018-04-11T11:11:49.551Z,97032.78
2018-04-11T11:12:53.213Z,97032.03
2018-04-11T11:13:56.708Z,96918.09
2018-04-11T11:15:00.249Z,97027.91
2018-04-11T11:16:03.787Z,97030.16
2018-04-11T11:17:07.324Z,97030.87
2018-04-11T11:18:11.271Z,97032.64
2018-04-11T11:19:14.842Z,96980.36
2018-04-11T11:20:18.301Z,97031.30
2018-04-11T11:21:21.689Z,97030.44
2018-04-11T11:22:25.200Z,97025.86
2018-04-11T11:23:28.626Z,96965.34
2018-04-11T11:24:32.583Z,97030.16
2018-04-11T11:25:36.233Z,96987.09
2018-04-11T11:26:39.883Z,97027.06
2018-04-11T11:27:43.567Z,97031.44
2018-04-11T11:28:47.328Z,97026.02
2018-04-11T11:29:50.952Z,97030.77
2018-04-11T11:30:55.010Z,97005.03
2018-04-11T11:31:58.725Z,97026.09
2018-04-11T11:33:02.325Z,97034.03
2018-04-11T11:34:06.022Z,97026.88
2018-04-11T11:35:09.835Z,96975.51
2018-04-11T11:36:13.409Z,97037.29
2018-04-11T11:37:17.134Z,96944.95
2018-04-11T15:51:07.337Z,96959.02
2018-04-11T15:52:10.815Z,96972.26
2018-04-11T15:53:14.361Z,96861.23
2018-04-11T15:54:18.882Z,96959.38
2018-04-11T15:55:22.412Z,96889.27
2018-04-11T15:56:26.506Z,96956.33
2018-04-11T15:57:30.185Z,96864.48
2018-04-11T15:58:33.717Z,96854.67
2018-04-11T15:59:37.371Z,96956.29
2018-04-11T16:00:40.977Z,96960.05
2018-04-11T16:01:44.518Z,96932.88
2018-04-11T16:02:48.469Z,96873.67
2018-04-11T16:03:51.927Z,96956.89
2018-04-11T16:04:55.467Z,96958.04
2018-04-11T16:06:00.172Z,96957.56
2018-04-11T16:07:03.876Z,96954.46
2018-04-11T16:08:07.398Z,96957.74
2018-04-11T16:09:11.248Z,96956.64
2018-04-11T16:10:14.905Z,96955.61
2018-04-11T16:11:18.431Z,96945.44
2018-04-11T16:12:22.064Z,96949.83
2018-04-11T16:13:26.725Z,96875.27
2018-04-11T16:14:30.314Z,96951.97
2018-04-11T16:15:34.237Z,96951.21
2018-04-11T16:16:37.678Z,96946.72
2018-04-11T16:17:41.126Z,96950.18
2018-04-11T16:18:44.845Z,96945.57
2018-04-11T16:19:48.451Z,96917.08
2018-04-11T16:20:51.999Z,96943.21
2018-04-11T16:21:55.928Z,96940.25
2018-04-11T16:22:59.580Z,96938.62
2018-04-11T16:24:03.230Z,96892.73
2018-04-11T16:25:07.012Z,96928.77
2018-04-11T16:35:21.680Z,96910.37
2018-04-11T16:36:25.200Z,96911.00
2018-04-11T16:37:29.135Z,96912.36
2018-04-11T16:38:34.670Z,96931.25
2018-04-11T16:39:38.253Z,96930.63
2018-04-11T16:40:42.212Z,96905.00
2018-04-11T16:41:46.206Z,96877.38
2018-04-11T16:42:49.804Z,96920.74
2018-04-11T16:44:00.523Z,96905.92
2018-04-11T16:45:04.316Z,96922.25
2018-04-11T16:46:07.927Z,96918.59
2018-04-11T16:47:11.850Z,96917.36
2018-04-11T16:48:15.363Z,96919.10
2018-04-11T16:49:21.168Z,96913.83
2018-04-11T16:50:24.642Z,96787.59
2018-04-11T16:51:28.148Z,96924.48
2018-04-11T16:52:31.674Z,96920.44
2018-04-11T16:53:35.274Z,96913.74
2018-04-11T16:54:39.692Z,96921.77
2018-04-11T16:55:43.301Z,96919.92
2018-04-11T16:56:47.006Z,96917.84
2018-04-11T16:57:50.554Z,96919.83
2018-04-11T16:58:54.635Z,96804.83
2018-04-11T16:59:59.126Z,96780.56
2018-04-11T17:01:02.804Z,96748.21
2018-04-11T17:02:06.380Z,96792.64
2018-04-11T17:03:10.020Z,96909.11
2018-04-11T17:04:13.707Z,96914.55
2018-04-11T17:05:17.645Z,96940.30
2018-04-11T17:06:21.180Z,96886.25
2018-04-11T17:07:24.735Z,96888.24
2018-04-11T17:08:30.927Z,96907.81
2018-04-11T17:09:34.531Z,96916.22
2018-04-11T17:10:38.122Z,96837.73
2018-04-11T17:11:42.070Z,96927.53
2018-04-11T17:12:45.635Z,96913.69
2018-04-11T17:13:49.099Z,96909.69
2018-04-11T17:14:52.672Z,96910.98
2018-04-11T17:15:56.356Z,96898.25
2018-04-11T17:17:00.037Z,96909.52
2018-04-11T17:18:03.881Z,96900.92
2018-04-11T17:19:07.525Z,96860.70
2018-04-11T17:20:11.135Z,96905.16
2018-04-11T17:21:14.726Z,96879.89
2018-04-11T17:22:18.396Z,96875.27
2018-04-11T17:23:21.957Z,96861.86
2018-04-11T17:24:25.794Z,96832.52
2018-04-11T17:25:29.409Z,96910.02
2018-04-11T17:26:33.421Z,96886.88
2018-04-11T17:27:37.103Z,96873.12
2018-04-11T17:28:40.769Z,96909.65
2018-04-11T17:29:44.336Z,96861.50
2018-04-11T17:30:48.231Z,96907.33
2018-04-11T17:31:51.866Z,96899.31
2018-04-11T17:32:56.946Z,96897.70
2018-04-11T17:34:00.610Z,96901.47
2018-04-11T17:35:04.137Z,96900.99
2018-04-11T17:36:07.633Z,96865.77
2018-04-11T17:37:11.405Z,96895.88
2018-04-11T17:38:14.890Z,96884.61
2018-04-11T17:39:18.699Z,96900.62
2018-04-11T17:40:22.330Z,96888.90
2018-04-11T17:41:25.878Z,96900.85
2018-04-11T17:42:29.427Z,96867.27
2018-04-11T17:43:33.375Z,96883.45
2018-04-11T17:44:37.068Z,96847.70
2018-04-11T17:45:40.501Z,96853.59
2018-04-11T17:46:43.937Z,96896.54
2018-04-11T17:47:47.425Z,96895.26
2018-04-11T17:48:50.857Z,96893.30
2018-04-11T17:49:54.664Z,96887.05
2018-04-11T17:50:58.265Z,96874.80
2018-04-11T17:52:01.880Z,96894.69
2018-04-11T17:53:05.446Z,96896.22
2018-04-11T17:54:09.075Z,96845.30
2018-04-11T17:55:12.591Z,96864.77
2018-04-11T17:56:16.496Z,96891.64
2018-04-11T17:57:20.089Z,96900.14
2018-04-11T17:58:23.681Z,96852.65
2018-04-11T17:59:27.398Z,96893.09
2018-04-11T18:00:30.938Z,96897.66
2018-04-11T18:01:34.513Z,96892.99
2018-04-11T18:02:38.356Z,96878.48
2018-04-11T18:03:41.836Z,96883.02
2018-04-11T18:04:45.456Z,96858.16
2018-04-11T18:05:48.986Z,96883.13
2018-04-11T18:06:52.552Z,96835.73
2018-04-11T18:07:56.139Z,96867.09
2018-04-11T18:08:59.725Z,96882.47
2018-04-11T18:10:03.284Z,96885.66
2018-04-11T18:11:06.753Z,96875.08
2018-04-11T18:12:10.641Z,96852.55
2018-04-11T18:13:14.165Z,96878.18
2018-04-11T18:14:17.681Z,96865.06
2018-04-11T18:15:23.118Z,96847.73
2018-04-11T18:16:27.713Z,96806.30
2018-04-11T18:17:35.453Z,96873.64
2018-04-11T18:18:40.718Z,96838.20
2018-04-11T18:19:45.586Z,96846.27
2018-04-11T20:16:49.272Z,96873.48
2018-04-11T20:17:52.923Z,96878.53
2018-04-11T20:18:56.704Z,96875.97
2018-04-11T20:20:02.128Z,96880.17
2018-04-11T20:21:07.347Z,96867.61
2018-04-11T21:09:20.036Z,96791.02
2018-04-11T21:10:23.552Z,96793.41
2018-04-11T21:11:27.194Z,96820.98
2018-04-11T21:12:30.808Z,96810.91
2018-04-11T21:13:34.374Z,96836.44
2018-04-11T21:14:37.858Z,96793.13
2018-04-11T21:15:41.808Z,96820.09
2018-04-11T21:16:45.563Z,96824.44
2018-04-11T21:17:49.123Z,96822.36
2018-04-11T21:18:52.831Z,96786.77
2018-04-11T21:19:56.533Z,96810.72
2018-04-11T21:21:00.092Z,96780.52
2018-04-11T21:22:04.195Z,96810.52
2018-04-11T21:23:07.780Z,96791.63
2018-04-11T21:24:11.844Z,96801.06
